PWSweather.com
Personal Weather Stations
Station Observations
WISCHPK61
Green Bay Schmitt Park, Green Bay, WI 54311

Green Bay Schmitt ParkGreen Bay, WI 54311

Lat: 44.514277, Lon: -87.935067

Elevation: 735

Station Type: Acu Rite Pro Weather Center model 02032C

http://greenbayweathercam.com

High Low Average
Temperature 51.0°F10.6°C 38.7°F3.7°C 43.2°F6.2°C
Dew Point 50.7°F10.4°C 38.4°F3.6°C 42.9°F6.1°C
Winds 5.8 mph 9.3 kmh Calm Calm 2.0 mph SW3.2 kmh SW
Wind Gusts 9.2 mph14.8 kmh -- 3.0 mph4.8 kmh
Humidity 99% 99% 99%
Pressure 29.25 in990.5 mb 28.85 in977.0 mb -
Precipitation 0.00 in0.0 mm - -
Hour Temp Dew Point Humidity Winds Wind Gusts Pressure Precip Precip Rate Daily Precip Total
12:00 AM 52.5°F11.4°C 52.2°F11.2°C 99% 4.6 mph NNW7.4 kmh NNW 4.6 mph7.4 kmh 28.84 in976.6 mb - 0.00 in0.0 mm 0.00 in0.0 mm
01:00 AM 51.0°F10.6°C 50.7°F10.4°C 99% 1.2 mph NNW1.9 kmh NNW 1.2 mph1.9 kmh 28.85 in977.0 mb - 0.00 in0.0 mm 0.00 in0.0 mm
02:00 AM 47.8°F8.8°C 47.5°F8.6°C 99% 2.3 mph NE3.7 kmh NE 3.5 mph5.6 kmh 28.88 in978.0 mb - 0.00 in0.0 mm 0.00 in0.0 mm
03:00 AM 46.4°F8.0°C 46.1°F7.8°C 99% Calm Calm -- 28.89 in978.3 mb - 0.00 in0.0 mm 0.00 in0.0 mm
04:00 AM 45.3°F7.4°C 45.0°F7.2°C 99% 3.5 mph N5.6 kmh N 8.1 mph13.0 kmh 28.90 in978.7 mb - 0.00 in0.0 mm 0.00 in0.0 mm
05:00 AM 44.8°F7.1°C 44.5°F6.9°C 99% 4.6 mph N7.4 kmh N 4.6 mph7.4 kmh 28.93 in979.7 mb - 0.00 in0.0 mm 0.00 in0.0 mm
06:00 AM 43.2°F6.2°C 42.9°F6.1°C 99% 5.8 mph NW9.3 kmh NW 5.8 mph9.3 kmh 28.96 in980.7 mb - 0.00 in0.0 mm 0.00 in0.0 mm
07:00 AM 42.4°F5.8°C 42.1°F5.6°C 99% 3.5 mph N5.6 kmh N 9.2 mph14.8 kmh 28.99 in981.7 mb - 0.00 in0.0 mm 0.00 in0.0 mm
08:00 AM 41.9°F5.5°C 41.6°F5.3°C 99% 1.2 mph WNW1.9 kmh WNW 1.2 mph1.9 kmh 29.01 in982.4 mb - 0.00 in0.0 mm 0.00 in0.0 mm
09:00 AM 41.9°F5.5°C 41.6°F5.3°C 99% 2.3 mph W3.7 kmh W 3.5 mph5.6 kmh 29.04 in983.4 mb - 0.00 in0.0 mm 0.00 in0.0 mm
10:00 AM 42.4°F5.8°C 42.1°F5.6°C 99% 2.3 mph W3.7 kmh W 8.1 mph13.0 kmh 29.06 in984.1 mb - 0.00 in0.0 mm 0.00 in0.0 mm
11:00 AM 43.5°F6.4°C 43.2°F6.2°C 99% Calm Calm -- 29.07 in984.4 mb - 0.00 in0.0 mm 0.00 in0.0 mm
12:00 PM 44.2°F6.8°C 43.9°F6.6°C 99% 1.2 mph NNW1.9 kmh NNW 1.2 mph1.9 kmh 29.08 in984.8 mb - 0.00 in0.0 mm 0.00 in0.0 mm
01:00 PM 47.4°F8.6°C 47.1°F8.4°C 99% 3.5 mph NW5.6 kmh NW 5.8 mph9.3 kmh 29.09 in985.1 mb - 0.00 in0.0 mm 0.00 in0.0 mm
02:00 PM 45.1°F7.3°C 44.9°F7.2°C 99% Calm Calm -- 29.11 in985.8 mb - 0.00 in0.0 mm 0.00 in0.0 mm
03:00 PM 44.4°F6.9°C 44.1°F6.7°C 99% 2.3 mph WNW3.7 kmh WNW 3.5 mph5.6 kmh 29.12 in986.1 mb - 0.00 in0.0 mm 0.00 in0.0 mm
04:00 PM 43.7°F6.5°C 43.4°F6.3°C 99% Calm Calm -- 29.14 in986.8 mb - 0.00 in0.0 mm 0.00 in0.0 mm
05:00 PM 42.4°F5.8°C 42.1°F5.6°C 99% 1.2 mph NNW1.9 kmh NNW 3.5 mph5.6 kmh 29.17 in987.8 mb - 0.00 in0.0 mm 0.00 in0.0 mm
06:00 PM 41.5°F5.3°C 41.2°F5.1°C 99% 3.5 mph ESE5.6 kmh ESE 4.6 mph7.4 kmh 29.19 in988.5 mb - 0.00 in0.0 mm 0.00 in0.0 mm
07:00 PM 40.5°F4.7°C 40.2°F4.6°C 99% Calm Calm -- 29.20 in988.8 mb - 0.00 in0.0 mm 0.00 in0.0 mm
08:00 PM 39.9°F4.4°C 39.6°F4.2°C 99% Calm Calm -- 29.22 in989.5 mb - 0.00 in0.0 mm 0.00 in0.0 mm
09:00 PM 39.7°F4.3°C 39.4°F4.1°C 99% Calm Calm -- 29.23 in989.8 mb - 0.00 in0.0 mm 0.00 in0.0 mm
10:00 PM 39.4°F4.1°C 39.1°F3.9°C 99% Calm Calm -- 29.24 in990.2 mb - 0.00 in0.0 mm 0.00 in0.0 mm
11:00 PM 38.8°F3.8°C 38.5°F3.6°C 99% Calm Calm -- 29.24 in990.2 mb - 0.00 in0.0 mm 0.00 in0.0 mm